Time;durP1;ratioP1;P1;durP2;ratioP2;P2;SDS_P1;SDS_P2;PMS_P1;PMS_P2;Temp;Humidity;BMP_temperature;BMP_pressure;BME280_temperature;BME280_humidity;BME280_pressure;Samples;Min_cycle;Max_cycle;Signal;HPM_P1;HPM_P2
2022/03/22 00:02:18;;;;;;;12.40;5.97;;;;;;;;;;5075429;28;20925;-69
2022/03/22 00:04:45;;;;;;;11.83;5.83;;;;;;;;;;5075361;28;20936;-70
2022/03/22 00:07:12;;;;;;;9.10;6.10;;;;;;;;;;5075375;28;20451;-69
2022/03/22 00:09:39;;;;;;;13.27;5.90;;;;;;;;;;5075403;28;20448;-69
2022/03/22 00:12:07;;;;;;;9.60;6.70;;;;;;;;;;5074978;28;20491;-70
2022/03/22 00:14:34;;;;;;;9.30;6.77;;;;;;;;;;5075052;28;20459;-69
2022/03/22 00:17:04;;;;;;;10.23;6.67;;;;;;;;;;5075131;28;20458;-70
2022/03/22 00:19:32;;;;;;;11.90;6.73;;;;;;;;;;5075210;28;20452;-70
2022/03/22 00:22:00;;;;;;;11.10;6.63;;;;;;;;;;5074911;28;20471;-69
2022/03/22 00:24:27;;;;;;;9.90;6.27;;;;;;;;;;5074836;28;20456;-70
2022/03/22 00:26:55;;;;;;;7.43;6.17;;;;;;;;;;5074875;28;20472;-70
2022/03/22 00:29:22;;;;;;;9.70;6.53;;;;;;;;;;5074925;28;20463;-69
2022/03/22 00:31:49;;;;;;;14.07;7.17;;;;;;;;;;5074990;28;20456;-70
2022/03/22 00:34:16;;;;;;;11.17;6.20;;;;;;;;;;5074857;28;20937;-69
2022/03/22 00:36:45;;;;;;;12.60;6.73;;;;;;;;;;5074906;28;20451;-69
2022/03/22 00:39:12;;;;;;;9.10;5.83;;;;;;;;;;5074613;28;20471;-70
2022/03/22 00:41:39;;;;;;;7.63;5.63;;;;;;;;;;5074316;28;20444;-69
2022/03/22 00:44:08;;;;;;;11.57;6.27;;;;;;;;;;5074501;28;20452;-69
2022/03/22 00:46:35;;;;;;;11.33;6.67;;;;;;;;;;5074618;28;20451;-69
2022/03/22 00:49:03;;;;;;;11.60;6.50;;;;;;;;;;5074484;28;20490;-69
2022/03/22 00:51:30;;;;;;;9.10;7.17;;;;;;;;;;5074474;28;20451;-69
2022/03/22 00:54:02;;;;;;;9.40;5.10;;;;;;;;;;5074092;28;20495;-69
2022/03/22 00:56:30;;;;;;;13.17;6.30;;;;;;;;;;5074579;28;20853;-69
2022/03/22 01:01:39;;;;;;;13.53;6.90;;;;;;;;;;5073731;28;20956;-71
2022/03/22 01:04:06;;;;;;;16.10;7.00;;;;;;;;;;5074031;28;20940;-70
2022/03/22 01:06:34;;;;;;;11.70;6.60;;;;;;;;;;5074195;28;20513;-69
2022/03/22 01:09:02;;;;;;;7.73;5.30;;;;;;;;;;5074078;28;20848;-69
2022/03/22 01:11:29;;;;;;;9.90;5.87;;;;;;;;;;5074024;28;20447;-69
2022/03/22 01:13:56;;;;;;;12.00;6.73;;;;;;;;;;5073663;28;20487;-70
2022/03/22 01:16:23;;;;;;;7.60;5.53;;;;;;;;;;5074158;28;20815;-69
2022/03/22 01:18:50;;;;;;;9.90;5.47;;;;;;;;;;5073808;28;20480;-70
2022/03/22 01:21:17;;;;;;;9.97;6.37;;;;;;;;;;5074059;28;20459;-69
2022/03/22 01:23:44;;;;;;;8.83;5.90;;;;;;;;;;5073776;28;20447;-69
2022/03/22 01:26:13;;;;;;;11.13;7.53;;;;;;;;;;5073863;28;20448;-69
2022/03/22 01:28:41;;;;;;;9.30;6.33;;;;;;;;;;5073748;28;20988;-69
2022/03/22 01:31:08;;;;;;;9.70;6.90;;;;;;;;;;5073559;28;20439;-69
2022/03/22 01:33:35;;;;;;;10.77;6.80;;;;;;;;;;5073612;28;20492;-69
2022/03/22 01:36:02;;;;;;;14.20;6.30;;;;;;;;;;5073634;28;20452;-69
2022/03/22 01:38:29;;;;;;;11.17;5.90;;;;;;;;;;5073517;28;20483;-69
2022/03/22 01:40:56;;;;;;;6.90;5.60;;;;;;;;;;5073580;28;21006;-69
2022/03/22 01:43:25;;;;;;;8.90;5.63;;;;;;;;;;5073668;28;20841;-69
2022/03/22 01:45:52;;;;;;;10.30;6.40;;;;;;;;;;5073394;28;20463;-69
2022/03/22 01:48:19;;;;;;;15.07;7.40;;;;;;;;;;5073411;28;20475;-69
2022/03/22 01:50:46;;;;;;;17.30;7.80;;;;;;;;;;5073485;28;20861;-69
2022/03/22 01:53:14;;;;;;;11.33;6.23;;;;;;;;;;5073355;28;20484;-69
2022/03/22 01:55:41;;;;;;;11.60;6.43;;;;;;;;;;5073107;28;20447;-69
2022/03/22 01:58:08;;;;;;;10.10;5.60;;;;;;;;;;5072961;28;20484;-69
2022/03/22 02:00:36;;;;;;;9.20;5.77;;;;;;;;;;5072770;28;20447;-69
2022/03/22 02:05:58;;;;;;;10.83;6.33;;;;;;;;;;5072927;28;20931;-69
2022/03/22 02:08:26;;;;;;;13.53;6.83;;;;;;;;;;5073082;28;20467;-69
2022/03/22 02:10:54;;;;;;;14.13;6.30;;;;;;;;;;5072516;28;20463;-69
2022/03/22 02:13:21;;;;;;;12.57;5.70;;;;;;;;;;5073023;28;20864;-69
2022/03/22 02:15:51;;;;;;;12.90;7.33;;;;;;;;;;5072871;28;20455;-69
2022/03/22 02:18:18;;;;;;;12.97;6.23;;;;;;;;;;5073195;28;20520;-69
2022/03/22 02:20:46;;;;;;;9.67;6.97;;;;;;;;;;5073031;28;20454;-69
2022/03/22 02:23:15;;;;;;;9.33;6.30;;;;;;;;;;5072673;28;20463;-69
2022/03/22 02:25:44;;;;;;;9.40;5.83;;;;;;;;;;5072577;28;20452;-69
2022/03/22 02:28:12;;;;;;;12.03;7.47;;;;;;;;;;5072723;28;20543;-69
2022/03/22 02:30:39;;;;;;;14.33;6.97;;;;;;;;;;5072850;28;20451;-69
2022/03/22 02:33:06;;;;;;;14.10;5.90;;;;;;;;;;5072817;28;20521;-69
2022/03/22 02:35:34;;;;;;;9.00;6.33;;;;;;;;;;5072517;28;20454;-69
2022/03/22 02:38:01;;;;;;;14.53;6.03;;;;;;;;;;5072533;28;20649;-69
2022/03/22 02:40:29;;;;;;;13.57;7.80;;;;;;;;;;5072587;28;20455;-69
2022/03/22 02:43:01;;;;;;;10.67;5.80;;;;;;;;;;5072777;28;20440;-69
2022/03/22 02:45:28;;;;;;;16.40;8.20;;;;;;;;;;5072480;28;20448;-69
2022/03/22 02:47:55;;;;;;;9.43;6.00;;;;;;;;;;5072447;28;21022;-70
2022/03/22 02:50:22;;;;;;;7.43;5.47;;;;;;;;;;5072644;28;20459;-69
2022/03/22 02:52:49;;;;;;;10.47;6.07;;;;;;;;;;5072519;28;20827;-69
2022/03/22 02:55:17;;;;;;;9.63;6.67;;;;;;;;;;5072375;28;20456;-69
2022/03/22 02:57:44;;;;;;;11.43;6.20;;;;;;;;;;5072577;28;20988;-69
2022/03/22 03:00:14;;;;;;;10.77;7.13;;;;;;;;;;5072643;28;20451;-69
2022/03/22 03:02:42;;;;;;;12.07;6.40;;;;;;;;;;5072038;28;20956;-69
2022/03/22 03:05:09;;;;;;;9.37;5.13;;;;;;;;;;5072206;28;20455;-69
2022/03/22 03:07:36;;;;;;;11.20;6.53;;;;;;;;;;5072487;28;20490;-69
2022/03/22 03:10:04;;;;;;;17.23;7.90;;;;;;;;;;5072397;28;20488;-69
2022/03/22 03:12:31;;;;;;;9.83;5.73;;;;;;;;;;5072616;28;20925;-69
2022/03/22 03:14:58;;;;;;;11.70;6.53;;;;;;;;;;5072151;28;20510;-69
2022/03/22 03:17:27;;;;;;;11.33;7.57;;;;;;;;;;5072422;28;20471;-69
2022/03/22 03:19:54;;;;;;;11.00;7.30;;;;;;;;;;5072289;28;20487;-70
2022/03/22 03:22:21;;;;;;;11.50;6.77;;;;;;;;;;5074132;28;20547;-69
2022/03/22 03:24:48;;;;;;;10.17;7.20;;;;;;;;;;5076054;28;20451;-69
2022/03/22 03:27:16;;;;;;;11.47;6.77;;;;;;;;;;5075971;28;20448;-69
2022/03/22 03:29:43;;;;;;;14.03;8.27;;;;;;;;;;5076027;28;20558;-69
2022/03/22 03:32:10;;;;;;;11.70;7.30;;;;;;;;;;5075915;28;20451;-69
2022/03/22 03:34:38;;;;;;;11.53;5.40;;;;;;;;;;5075749;28;20487;-69
2022/03/22 03:37:06;;;;;;;9.30;6.60;;;;;;;;;;5075767;28;20454;-69
2022/03/22 03:39:33;;;;;;;13.43;6.47;;;;;;;;;;5075930;28;20455;-69
2022/03/22 03:42:02;;;;;;;10.17;6.47;;;;;;;;;;5075150;28;20458;-69
2022/03/22 03:47:16;;;;;;;15.70;7.23;;;;;;;;;;5075667;28;20415;-69
2022/03/22 03:49:45;;;;;;;10.70;7.03;;;;;;;;;;5075773;28;20509;-69
2022/03/22 03:52:13;;;;;;;11.90;6.33;;;;;;;;;;5075914;28;20463;-69
2022/03/22 03:54:40;;;;;;;10.77;6.80;;;;;;;;;;5075195;28;20493;-69
2022/03/22 03:57:08;;;;;;;9.67;5.93;;;;;;;;;;5075330;28;20447;-69
2022/03/22 03:59:36;;;;;;;7.57;5.57;;;;;;;;;;5075699;28;20818;-69
2022/03/22 04:02:04;;;;;;;7.90;6.30;;;;;;;;;;5075167;28;20456;-69
2022/03/22 04:04:31;;;;;;;12.03;7.10;;;;;;;;;;5075283;28;20444;-69
2022/03/22 04:07:00;;;;;;;9.63;6.03;;;;;;;;;;5075036;28;20455;-69
2022/03/22 04:09:27;;;;;;;7.53;5.73;;;;;;;;;;5075151;28;20455;-69
2022/03/22 04:11:54;;;;;;;10.23;6.30;;;;;;;;;;5074918;28;20861;-69
2022/03/22 04:14:22;;;;;;;10.20;5.80;;;;;;;;;;5074796;28;20526;-69
2022/03/22 04:16:49;;;;;;;10.00;6.13;;;;;;;;;;5074765;28;20550;-69
2022/03/22 04:19:16;;;;;;;13.93;7.57;;;;;;;;;;5074877;28;20502;-69
2022/03/22 04:21:43;;;;;;;9.37;6.03;;;;;;;;;;5074557;28;20459;-69
2022/03/22 04:24:13;;;;;;;10.00;6.33;;;;;;;;;;5074476;28;21006;-69
2022/03/22 04:26:41;;;;;;;9.83;5.90;;;;;;;;;;5074646;28;20452;-69
2022/03/22 04:34:38;;;;;;;13.50;6.43;;;;;;;;;;5073799;28;20487;-69
2022/03/22 04:37:06;;;;;;;17.93;6.77;;;;;;;;;;5074366;28;20459;-69
2022/03/22 04:39:35;;;;;;;9.27;6.83;;;;;;;;;;5074504;28;20538;-69
2022/03/22 04:42:02;;;;;;;9.93;7.20;;;;;;;;;;5073788;28;20463;-69
2022/03/22 04:44:30;;;;;;;11.23;6.13;;;;;;;;;;5074216;28;20937;-69
2022/03/22 04:46:57;;;;;;;11.07;6.63;;;;;;;;;;5074220;28;20804;-69
2022/03/22 04:49:25;;;;;;;9.73;6.90;;;;;;;;;;5074388;28;20505;-69
2022/03/22 04:57:22;;;;;;;13.43;7.23;;;;;;;;;;5074092;28;20521;-69
2022/03/22 04:59:49;;;;;;;9.33;6.70;;;;;;;;;;5074013;28;20455;-69
2022/03/22 05:02:17;;;;;;;9.10;6.30;;;;;;;;;;5074134;28;20451;-69
2022/03/22 05:04:44;;;;;;;10.00;6.77;;;;;;;;;;5073893;28;20867;-69
2022/03/22 05:07:11;;;;;;;11.43;7.47;;;;;;;;;;5074015;28;20451;-69
2022/03/22 05:09:39;;;;;;;108.70;50.03;;;;;;;;;;5074176;28;20451;-69
2022/03/22 05:12:13;;;;;;;27.50;13.57;;;;;;;;;;5073845;28;20459;-69
2022/03/22 05:14:40;;;;;;;25.83;17.63;;;;;;;;;;5073617;28;20487;-69
2022/03/22 05:17:07;;;;;;;10.60;6.97;;;;;;;;;;5073576;28;20463;-69
2022/03/22 05:19:34;;;;;;;20.80;12.10;;;;;;;;;;5073787;28;20443;-69
2022/03/22 05:22:02;;;;;;;15.27;9.33;;;;;;;;;;5073415;28;20470;-69
2022/03/22 05:24:30;;;;;;;12.77;8.00;;;;;;;;;;5073323;28;20470;-69
2022/03/22 05:26:58;;;;;;;20.83;13.40;;;;;;;;;;5073580;28;20536;-69
2022/03/22 05:29:25;;;;;;;22.37;14.20;;;;;;;;;;5073568;28;20455;-69
2022/03/22 05:31:52;;;;;;;15.67;12.33;;;;;;;;;;5073514;28;20447;-69
2022/03/22 05:34:19;;;;;;;16.60;12.33;;;;;;;;;;5073078;28;20480;-69
2022/03/22 05:36:47;;;;;;;17.77;11.80;;;;;;;;;;5073138;28;20456;-69
2022/03/22 05:39:14;;;;;;;56.23;36.70;;;;;;;;;;5073070;28;20502;-69
2022/03/22 05:41:41;;;;;;;13.80;10.83;;;;;;;;;;5072765;28;20458;-69
2022/03/22 05:44:10;;;;;;;15.80;10.27;;;;;;;;;;5072175;28;20942;-68
2022/03/22 05:46:37;;;;;;;13.67;6.63;;;;;;;;;;5073069;28;20513;-68
2022/03/22 05:49:04;;;;;;;13.07;7.47;;;;;;;;;;5072932;28;20733;-69
2022/03/22 05:51:31;;;;;;;14.77;7.83;;;;;;;;;;5072839;28;20460;-69
2022/03/22 05:53:59;;;;;;;13.70;8.07;;;;;;;;;;5072656;28;21007;-69
2022/03/22 05:56:26;;;;;;;9.23;6.33;;;;;;;;;;5073037;28;20458;-69
2022/03/22 05:58:53;;;;;;;11.57;7.50;;;;;;;;;;5072936;28;20486;-68
2022/03/22 06:01:23;;;;;;;22.43;11.10;;;;;;;;;;5072904;28;20456;-68
2022/03/22 06:03:51;;;;;;;26.63;15.07;;;;;;;;;;5072423;28;20462;-69
2022/03/22 06:06:18;;;;;;;18.80;10.53;;;;;;;;;;5072903;28;20892;-69
2022/03/22 06:08:45;;;;;;;20.10;9.67;;;;;;;;;;5072662;28;21023;-69
2022/03/22 06:11:12;;;;;;;11.77;8.17;;;;;;;;;;5072758;28;20507;-69
2022/03/22 06:13:39;;;;;;;12.17;9.03;;;;;;;;;;5072947;28;20479;-69
2022/03/22 06:16:06;;;;;;;12.80;7.20;;;;;;;;;;5073024;28;20452;-69
2022/03/22 06:18:35;;;;;;;21.47;7.70;;;;;;;;;;5072598;28;20472;-69
2022/03/22 06:21:02;;;;;;;11.23;6.33;;;;;;;;;;5072526;28;20937;-69
2022/03/22 06:23:29;;;;;;;15.87;6.33;;;;;;;;;;5072402;28;20460;-70
2022/03/22 06:25:56;;;;;;;9.27;5.83;;;;;;;;;;5072461;28;20456;-69
2022/03/22 06:28:23;;;;;;;10.80;6.87;;;;;;;;;;5072503;28;20463;-69
2022/03/22 06:30:51;;;;;;;13.37;6.60;;;;;;;;;;5072399;28;20447;-70
2022/03/22 06:33:18;;;;;;;12.13;5.90;;;;;;;;;;5072522;28;20455;-69
2022/03/22 06:35:47;;;;;;;10.97;7.00;;;;;;;;;;5072231;28;20909;-70
2022/03/22 06:38:14;;;;;;;9.30;7.03;;;;;;;;;;5072498;28;20471;-69
2022/03/22 06:40:41;;;;;;;14.53;8.70;;;;;;;;;;5072235;28;20456;-69
2022/03/22 06:43:10;;;;;;;12.17;7.97;;;;;;;;;;5072389;28;20448;-70
2022/03/22 06:45:37;;;;;;;11.00;8.37;;;;;;;;;;5072254;28;20471;-70
2022/03/22 06:48:05;;;;;;;14.30;7.20;;;;;;;;;;5072220;28;20847;-69
2022/03/22 06:50:32;;;;;;;9.57;7.00;;;;;;;;;;5071658;28;20501;-69
2022/03/22 06:53:01;;;;;;;10.77;6.93;;;;;;;;;;5072300;28;20467;-70
2022/03/22 06:55:28;;;;;;;10.37;8.10;;;;;;;;;;5072534;28;20513;-69
2022/03/22 06:57:56;;;;;;;10.00;7.40;;;;;;;;;;5076424;28;20991;-70
2022/03/22 07:00:23;;;;;;;8.20;6.27;;;;;;;;;;5074159;28;20487;-70
2022/03/22 07:02:50;;;;;;;17.50;7.90;;;;;;;;;;5075098;28;20542;-70
2022/03/22 07:05:18;;;;;;;9.50;7.10;;;;;;;;;;5075021;28;20448;-70
2022/03/22 07:07:45;;;;;;;12.77;6.97;;;;;;;;;;5074848;28;20471;-70
2022/03/22 07:10:14;;;;;;;7.03;6.23;;;;;;;;;;5075140;28;20454;-70
2022/03/22 07:12:51;;;;;;;8.80;7.50;;;;;;;;;;5074943;28;20452;-70
2022/03/22 07:15:18;;;;;;;10.37;7.13;;;;;;;;;;5074799;28;20999;-70
2022/03/22 07:17:45;;;;;;;9.90;7.17;;;;;;;;;;5075014;28;20914;-71
2022/03/22 07:20:13;;;;;;;12.93;7.53;;;;;;;;;;5074986;28;20456;-70
2022/03/22 07:22:42;;;;;;;8.20;7.20;;;;;;;;;;5074560;28;20474;-70
2022/03/22 07:25:10;;;;;;;9.10;7.93;;;;;;;;;;5074568;28;20448;-70
2022/03/22 07:27:38;;;;;;;14.10;7.67;;;;;;;;;;5074745;28;21006;-70
2022/03/22 07:30:05;;;;;;;12.37;9.53;;;;;;;;;;5073571;28;20462;-70
2022/03/22 07:32:33;;;;;;;18.00;16.33;;;;;;;;;;5074771;28;20451;-70
2022/03/22 07:35:00;;;;;;;13.60;12.20;;;;;;;;;;5074331;28;20487;-70
2022/03/22 07:37:28;;;;;;;13.93;10.00;;;;;;;;;;5074279;28;20471;-70
2022/03/22 07:39:56;;;;;;;9.77;8.30;;;;;;;;;;5074198;28;20463;-71
2022/03/22 07:42:27;;;;;;;9.67;7.67;;;;;;;;;;5074692;28;20456;-71
2022/03/22 07:44:55;;;;;;;10.20;8.13;;;;;;;;;;5074124;28;20486;-71
2022/03/22 07:47:22;;;;;;;7.67;6.87;;;;;;;;;;5074460;28;20479;-70
2022/03/22 07:55:19;;;;;;;9.50;7.00;;;;;;;;;;5074247;28;20529;-71
2022/03/22 07:57:46;;;;;;;10.93;7.47;;;;;;;;;;5074188;28;20478;-71
2022/03/22 08:00:17;;;;;;;14.63;7.43;;;;;;;;;;5074321;28;20932;-70
2022/03/22 08:02:55;;;;;;;13.00;8.67;;;;;;;;;;5074305;28;20535;-70
2022/03/22 08:05:22;;;;;;;11.07;8.27;;;;;;;;;;5074018;28;20450;-70
2022/03/22 08:07:49;;;;;;;12.60;7.90;;;;;;;;;;5073295;28;20850;-70
2022/03/22 08:10:16;;;;;;;9.77;7.73;;;;;;;;;;5074180;28;20825;-70
2022/03/22 08:12:44;;;;;;;12.93;8.00;;;;;;;;;;5074009;28;20458;-70
2022/03/22 08:15:11;;;;;;;10.70;8.43;;;;;;;;;;5073479;28;20523;-71
2022/03/22 08:17:40;;;;;;;10.43;7.63;;;;;;;;;;5073889;28;20871;-70
2022/03/22 08:20:08;;;;;;;10.40;7.67;;;;;;;;;;5073812;28;20487;-70
2022/03/22 08:22:46;;;;;;;10.70;7.77;;;;;;;;;;5073684;28;20463;-70
2022/03/22 08:25:13;;;;;;;9.00;6.80;;;;;;;;;;5073697;28;20447;-70
2022/03/22 08:27:40;;;;;;;12.97;7.17;;;;;;;;;;5073549;28;20483;-70
2022/03/22 08:30:07;;;;;;;11.40;8.20;;;;;;;;;;5073438;28;20470;-71
2022/03/22 08:32:35;;;;;;;10.03;7.40;;;;;;;;;;5073567;28;20470;-71
2022/03/22 08:35:03;;;;;;;12.20;7.77;;;;;;;;;;5073411;28;20832;-71
2022/03/22 08:37:31;;;;;;;11.80;7.13;;;;;;;;;;5073292;28;20988;-70
2022/03/22 08:39:58;;;;;;;8.80;7.00;;;;;;;;;;5073165;28;20600;-70
2022/03/22 08:42:26;;;;;;;10.07;7.57;;;;;;;;;;5073467;28;20463;-70
2022/03/22 08:44:53;;;;;;;15.93;8.20;;;;;;;;;;5072992;28;20466;-71
2022/03/22 08:47:20;;;;;;;12.20;6.70;;;;;;;;;;5073354;28;20479;-70
2022/03/22 08:49:48;;;;;;;8.50;6.47;;;;;;;;;;5079745;28;20455;-70
2022/03/22 08:52:17;;;;;;;7.90;6.57;;;;;;;;;;5095061;28;20501;-70
2022/03/22 08:54:45;;;;;;;9.10;6.80;;;;;;;;;;5094510;28;20951;-70
2022/03/22 08:57:12;;;;;;;14.63;7.70;;;;;;;;;;5094664;28;20485;-70
2022/03/22 08:59:39;;;;;;;10.97;6.77;;;;;;;;;;5094916;28;20971;-70
2022/03/22 09:02:06;;;;;;;7.87;6.93;;;;;;;;;;5094805;28;20810;-70
2022/03/22 09:07:19;;;;;;;9.00;6.83;;;;;;;;;;5094549;28;20461;-70
2022/03/22 09:09:46;;;;;;;10.20;6.30;;;;;;;;;;5094503;28;20451;-70
2022/03/22 09:12:14;;;;;;;8.80;6.40;;;;;;;;;;5094450;28;20450;-69
2022/03/22 09:14:41;;;;;;;19.87;7.57;;;;;;;;;;5094147;28;20459;-69
2022/03/22 09:17:08;;;;;;;12.47;7.73;;;;;;;;;;5094431;28;20962;-70
2022/03/22 09:19:36;;;;;;;9.37;7.80;;;;;;;;;;5094421;28;20451;-71
2022/03/22 09:22:05;;;;;;;12.70;6.50;;;;;;;;;;5094126;28;20467;-70
2022/03/22 09:24:34;;;;;;;9.60;7.97;;;;;;;;;;5094289;28;20482;-70
2022/03/22 09:27:02;;;;;;;9.20;6.67;;;;;;;;;;5094108;28;20451;-70
2022/03/22 09:29:29;;;;;;;11.70;6.80;;;;;;;;;;5094224;28;20463;-70
2022/03/22 09:31:56;;;;;;;9.33;7.43;;;;;;;;;;5094014;28;20454;-70
2022/03/22 09:34:24;;;;;;;13.30;7.00;;;;;;;;;;5093937;28;20816;-70
2022/03/22 09:36:51;;;;;;;7.33;6.40;;;;;;;;;;5093996;28;20835;-71
2022/03/22 09:39:19;;;;;;;7.87;6.10;;;;;;;;;;5094011;28;20482;-70
2022/03/22 09:41:48;;;;;;;7.50;6.53;;;;;;;;;;5093443;28;20952;-70
2022/03/22 09:44:18;;;;;;;10.00;7.00;;;;;;;;;;5093910;28;20781;-70
2022/03/22 09:46:46;;;;;;;9.03;6.90;;;;;;;;;;5093878;28;20530;-70
2022/03/22 09:49:13;;;;;;;7.93;6.70;;;;;;;;;;5093940;28;20470;-71
2022/03/22 09:51:48;;;;;;;10.83;6.70;;;;;;;;;;5093805;28;20458;-70
2022/03/22 09:54:17;;;;;;;9.17;7.00;;;;;;;;;;5094022;28;20450;-70
2022/03/22 09:56:45;;;;;;;10.70;6.40;;;;;;;;;;5093697;28;20495;-70
2022/03/22 09:59:14;;;;;;;9.40;6.97;;;;;;;;;;5093422;28;20474;-70
2022/03/22 10:01:41;;;;;;;8.87;7.10;;;;;;;;;;5093603;28;20485;-70
2022/03/22 10:04:12;;;;;;;10.13;7.50;;;;;;;;;;5093181;28;20453;-71
2022/03/22 10:06:40;;;;;;;7.40;6.60;;;;;;;;;;5093705;28;20455;-70
2022/03/22 10:09:07;;;;;;;9.93;6.00;;;;;;;;;;5093384;28;20474;-70
2022/03/22 10:11:39;;;;;;;8.60;6.57;;;;;;;;;;5093555;28;20989;-70
2022/03/22 10:14:08;;;;;;;7.87;6.13;;;;;;;;;;5093075;28;20450;-71
2022/03/22 10:16:46;;;;;;;9.60;7.30;;;;;;;;;;5093204;28;20490;-70
2022/03/22 10:19:22;;;;;;;8.27;6.47;;;;;;;;;;5093285;28;20903;-70
2022/03/22 10:21:50;;;;;;;8.93;5.97;;;;;;;;;;5093196;28;20469;-70
2022/03/22 10:24:17;;;;;;;8.23;5.80;;;;;;;;;;5092919;28;20461;-71
2022/03/22 10:26:46;;;;;;;8.80;6.10;;;;;;;;;;5093139;28;20455;-71
2022/03/22 10:29:14;;;;;;;9.27;6.37;;;;;;;;;;5093029;28;20478;-70
2022/03/22 10:31:42;;;;;;;12.10;6.10;;;;;;;;;;5092760;28;20453;-70
2022/03/22 10:34:11;;;;;;;7.33;6.40;;;;;;;;;;5092873;28;20454;-70
2022/03/22 10:36:39;;;;;;;8.63;5.37;;;;;;;;;;5093044;28;20501;-70
2022/03/22 10:39:07;;;;;;;6.60;5.20;;;;;;;;;;5092959;28;20999;-70
2022/03/22 10:41:38;;;;;;;14.13;5.70;;;;;;;;;;5092880;28;20504;-70
2022/03/22 10:44:06;;;;;;;8.33;6.13;;;;;;;;;;5092856;28;20507;-70
2022/03/22 10:46:33;;;;;;;8.27;4.90;;;;;;;;;;5093206;28;20443;-70
2022/03/22 10:49:03;;;;;;;5.60;4.90;;;;;;;;;;5092978;28;20466;-70
2022/03/22 10:51:35;;;;;;;7.70;5.20;;;;;;;;;;5093189;28;20451;-70
2022/03/22 10:54:02;;;;;;;7.50;6.00;;;;;;;;;;5092896;28;20981;-70
2022/03/22 10:56:30;;;;;;;7.10;5.67;;;;;;;;;;5092853;28;20489;-70
2022/03/22 10:58:59;;;;;;;8.17;5.50;;;;;;;;;;5092844;28;20486;-70
2022/03/22 11:01:26;;;;;;;5.53;5.03;;;;;;;;;;5092960;28;20490;-70
2022/03/22 11:03:57;;;;;;;6.63;5.83;;;;;;;;;;5092409;28;20466;-70
2022/03/22 11:06:28;;;;;;;7.33;6.63;;;;;;;;;;5092770;28;20499;-70
2022/03/22 11:08:56;;;;;;;7.10;5.50;;;;;;;;;;5092635;28;20478;-70
2022/03/22 11:11:24;;;;;;;5.30;4.40;;;;;;;;;;5092993;28;20836;-72
2022/03/22 11:13:51;;;;;;;5.50;4.80;;;;;;;;;;5092529;28;20446;-72
2022/03/22 11:16:20;;;;;;;5.90;5.27;;;;;;;;;;5092634;28;21075;-70
2022/03/22 11:18:47;;;;;;;6.03;5.07;;;;;;;;;;5092438;28;20474;-70
2022/03/22 11:21:17;;;;;;;5.53;5.00;;;;;;;;;;5092834;28;20454;-70
2022/03/22 11:23:47;;;;;;;6.73;4.60;;;;;;;;;;5092412;28;20451;-71
2022/03/22 11:26:18;;;;;;;6.00;5.10;;;;;;;;;;5092975;28;20916;-70
2022/03/22 11:28:46;;;;;;;6.83;5.30;;;;;;;;;;5092587;28;20474;-70
2022/03/22 11:31:14;;;;;;;5.67;5.07;;;;;;;;;;5092441;28;20564;-70
2022/03/22 11:36:28;;;;;;;7.10;5.50;;;;;;;;;;5092709;28;20497;-70
2022/03/22 11:38:56;;;;;;;5.47;4.97;;;;;;;;;;5092448;28;20471;-70
2022/03/22 11:44:18;;;;;;;7.83;4.90;;;;;;;;;;5095455;28;20480;-70
2022/03/22 11:46:45;;;;;;;5.00;4.50;;;;;;;;;;5096182;28;20816;-70
2022/03/22 11:49:13;;;;;;;6.37;5.00;;;;;;;;;;5096109;28;20470;-70
2022/03/22 11:51:47;;;;;;;5.00;4.57;;;;;;;;;;5096196;28;20447;-70
2022/03/22 11:54:15;;;;;;;6.60;5.03;;;;;;;;;;5095797;28;20452;-70
2022/03/22 11:56:48;;;;;;;5.80;5.20;;;;;;;;;;5095947;28;20486;-70
2022/03/22 11:59:19;;;;;;;5.53;5.03;;;;;;;;;;5095983;28;20470;-70
2022/03/22 12:02:10;;;;;;;5.40;4.90;;;;;;;;;;5095924;28;20439;-70
2022/03/22 12:04:41;;;;;;;6.20;5.60;;;;;;;;;;5080323;28;20458;-71
2022/03/22 12:07:08;;;;;;;7.70;5.17;;;;;;;;;;5095662;28;20482;-71
2022/03/22 12:09:36;;;;;;;6.80;4.13;;;;;;;;;;5095785;28;20458;-70
2022/03/22 12:12:06;;;;;;;5.30;4.60;;;;;;;;;;5095689;28;20953;-70
2022/03/22 12:14:35;;;;;;;4.80;4.23;;;;;;;;;;5095578;28;20948;-70
2022/03/22 12:17:02;;;;;;;5.37;4.87;;;;;;;;;;5095310;28;20490;-71
2022/03/22 12:19:31;;;;;;;4.90;3.70;;;;;;;;;;5095583;28;20451;-70
2022/03/22 12:22:00;;;;;;;11.07;5.07;;;;;;;;;;5095348;28;20586;-70
2022/03/22 12:24:33;;;;;;;4.17;3.77;;;;;;;;;;5095275;28;20530;-70
2022/03/22 12:27:01;;;;;;;4.50;4.10;;;;;;;;;;5095254;28;20452;-71
2022/03/22 12:29:29;;;;;;;5.20;3.90;;;;;;;;;;5095328;28;20484;-71
2022/03/22 12:32:06;;;;;;;4.40;4.00;;;;;;;;;;5095214;28;20457;-71
2022/03/22 12:34:35;;;;;;;5.20;4.20;;;;;;;;;;5095211;28;20511;-71
2022/03/22 12:37:02;;;;;;;6.53;4.97;;;;;;;;;;5094980;28;20483;-71
2022/03/22 12:39:29;;;;;;;8.13;4.90;;;;;;;;;;5095346;28;20481;-70
2022/03/22 12:41:57;;;;;;;4.53;3.73;;;;;;;;;;5094562;28;20460;-71
2022/03/22 12:44:25;;;;;;;6.07;5.40;;;;;;;;;;5094747;28;20451;-71
2022/03/22 12:46:54;;;;;;;4.83;4.43;;;;;;;;;;5094794;28;20450;-70
2022/03/22 12:49:23;;;;;;;6.10;5.33;;;;;;;;;;5094922;28;20527;-70
2022/03/22 12:51:50;;;;;;;9.53;4.47;;;;;;;;;;5094795;28;20534;-71
2022/03/22 12:54:18;;;;;;;13.93;5.13;;;;;;;;;;5094250;28;20470;-70
2022/03/22 12:56:46;;;;;;;5.37;4.87;;;;;;;;;;5094729;28;20552;-70
2022/03/22 12:59:18;;;;;;;6.30;4.97;;;;;;;;;;5094726;28;20889;-70
2022/03/22 13:01:46;;;;;;;5.13;4.67;;;;;;;;;;5091091;28;20454;-71
2022/03/22 13:04:22;;;;;;;5.90;5.20;;;;;;;;;;5092518;28;20458;-70
2022/03/22 13:06:50;;;;;;;7.07;5.10;;;;;;;;;;5092574;28;20455;-70
2022/03/22 13:12:02;;;;;;;7.90;5.60;;;;;;;;;;5093087;28;20429;-70
2022/03/22 13:17:13;;;;;;;9.17;5.70;;;;;;;;;;5081861;28;20490;-70
2022/03/22 13:19:42;;;;;;;7.40;5.90;;;;;;;;;;5092912;28;20589;-70
2022/03/22 13:22:17;;;;;;;7.10;5.40;;;;;;;;;;5092506;28;20458;-70
2022/03/22 13:24:44;;;;;;;12.17;5.43;;;;;;;;;;5093000;28;20519;-71
2022/03/22 13:27:11;;;;;;;12.37;5.57;;;;;;;;;;5092546;28;20450;-71
2022/03/22 13:29:39;;;;;;;7.67;5.80;;;;;;;;;;5092617;28;20936;-70
2022/03/22 13:32:07;;;;;;;13.47;6.57;;;;;;;;;;5092515;28;20453;-70
2022/03/22 13:34:35;;;;;;;7.03;5.70;;;;;;;;;;5092515;28;20947;-70
2022/03/22 13:37:08;;;;;;;9.97;5.60;;;;;;;;;;5092083;28;20489;-70
2022/03/22 13:39:35;;;;;;;9.70;4.97;;;;;;;;;;5092734;28;20454;-70
2022/03/22 13:42:09;;;;;;;7.67;6.00;;;;;;;;;;5092072;28;20451;-71
2022/03/22 13:44:44;;;;;;;7.70;6.40;;;;;;;;;;5092156;28;20453;-70
2022/03/22 13:47:11;;;;;;;5.90;5.30;;;;;;;;;;5092432;28;20860;-70
2022/03/22 13:49:38;;;;;;;7.70;6.63;;;;;;;;;;5092506;28;20967;-71
2022/03/22 13:52:06;;;;;;;7.97;5.80;;;;;;;;;;5091972;28;20450;-70
2022/03/22 13:54:34;;;;;;;6.00;5.50;;;;;;;;;;5092351;28;20956;-70
2022/03/22 13:57:08;;;;;;;5.53;5.03;;;;;;;;;;5092081;28;20489;-70
2022/03/22 13:59:41;;;;;;;7.90;5.77;;;;;;;;;;5092198;28;20450;-70
2022/03/22 14:02:09;;;;;;;9.93;6.57;;;;;;;;;;5091930;28;20454;-71
2022/03/22 14:04:36;;;;;;;10.60;6.33;;;;;;;;;;5092087;28;20946;-71
2022/03/22 14:07:04;;;;;;;7.20;5.53;;;;;;;;;;5091087;28;20454;-70
2022/03/22 14:09:32;;;;;;;9.77;6.13;;;;;;;;;;5092010;28;20460;-71
2022/03/22 14:12:01;;;;;;;8.27;5.60;;;;;;;;;;5091797;28;20554;-71
2022/03/22 14:14:28;;;;;;;6.43;4.90;;;;;;;;;;5091881;28;20451;-70
2022/03/22 14:16:55;;;;;;;6.50;5.27;;;;;;;;;;5091811;28;20474;-70
2022/03/22 14:19:22;;;;;;;8.00;4.60;;;;;;;;;;5091774;28;20489;-70
2022/03/22 14:21:49;;;;;;;11.43;6.37;;;;;;;;;;5091643;28;20467;-71
2022/03/22 14:24:16;;;;;;;13.23;5.50;;;;;;;;;;5091563;28;20458;-71
2022/03/22 14:26:45;;;;;;;7.33;5.43;;;;;;;;;;5091943;28;20944;-71
2022/03/22 14:29:13;;;;;;;7.47;4.90;;;;;;;;;;5091510;28;20478;-70
2022/03/22 14:31:40;;;;;;;6.70;5.40;;;;;;;;;;5091800;28;20451;-71
2022/03/22 14:34:12;;;;;;;6.80;4.87;;;;;;;;;;5091585;28;20438;-71
2022/03/22 14:36:38;;;;;;;5.93;4.83;;;;;;;;;;5091683;28;20483;-71
2022/03/22 14:39:05;;;;;;;26.20;6.20;;;;;;;;;;5091555;28;20550;-71
2022/03/22 14:41:33;;;;;;;6.13;5.17;;;;;;;;;;5091689;28;20454;-71
2022/03/22 14:44:02;;;;;;;5.93;4.73;;;;;;;;;;5092677;28;20806;-71
2022/03/22 14:46:31;;;;;;;6.53;4.63;;;;;;;;;;5092550;28;20538;-72
2022/03/22 14:48:58;;;;;;;9.00;5.53;;;;;;;;;;5092349;28;20512;-72
2022/03/22 14:54:09;;;;;;;8.00;5.37;;;;;;;;;;5092735;28;20462;-71
2022/03/22 14:59:22;;;;;;;7.90;4.90;;;;;;;;;;5093041;28;20442;-72
2022/03/22 15:01:51;;;;;;;5.47;4.90;;;;;;;;;;5092726;28;20454;-71
2022/03/22 15:04:18;;;;;;;4.50;3.60;;;;;;;;;;5092793;28;20455;-71
2022/03/22 15:06:45;;;;;;;6.37;4.60;;;;;;;;;;5092935;28;20462;-71
2022/03/22 15:09:14;;;;;;;7.77;4.83;;;;;;;;;;5092688;28;20864;-71
2022/03/22 15:11:41;;;;;;;5.93;4.37;;;;;;;;;;5092797;28;20493;-71
2022/03/22 15:14:12;;;;;;;5.57;4.17;;;;;;;;;;5092495;28;20461;-72
2022/03/22 15:16:39;;;;;;;7.23;4.90;;;;;;;;;;5093433;28;20458;-71
2022/03/22 15:19:07;;;;;;;5.87;4.53;;;;;;;;;;5096489;28;20489;-71
2022/03/22 15:21:35;;;;;;;5.93;4.50;;;;;;;;;;5096547;28;20446;-71
2022/03/22 15:24:03;;;;;;;5.07;3.93;;;;;;;;;;5096458;28;20800;-71
2022/03/22 15:26:31;;;;;;;4.90;4.40;;;;;;;;;;5096483;28;20450;-71